sensor_id;sensor_type;location;lat;lon;timestamp;pressure;altitude;pressure_sealevel;temperature;humidity
16016;BME280;8112;53.592;10.184;2024-02-15T00:02:45;101348.06;;;10.37;100.00
16016;BME280;8112;53.592;10.184;2024-02-15T00:07:48;101357.44;;;10.45;100.00
16016;BME280;8112;53.592;10.184;2024-02-15T00:12:50;101360.06;;;10.45;100.00
16016;BME280;8112;53.592;10.184;2024-02-15T00:17:52;101376.81;;;10.44;100.00
16016;BME280;8112;53.592;10.184;2024-02-15T00:22:55;101368.22;;;10.38;100.00
16016;BME280;8112;53.592;10.184;2024-02-15T00:27:57;101367.28;;;10.39;100.00
16016;BME280;8112;53.592;10.184;2024-02-15T00:33:01;101359.97;;;10.46;100.00
16016;BME280;8112;53.592;10.184;2024-02-15T00:38:04;101362.53;;;10.48;100.00
16016;BME280;8112;53.592;10.184;2024-02-15T00:43:07;101365.19;;;10.48;100.00
16016;BME280;8112;53.592;10.184;2024-02-15T00:48:09;101373.69;;;10.53;100.00
16016;BME280;8112;53.592;10.184;2024-02-15T00:53:14;101370.06;;;10.55;100.00
16016;BME280;8112;53.592;10.184;2024-02-15T00:58:17;101371.84;;;10.55;100.00
16016;BME280;8112;53.592;10.184;2024-02-15T01:03:19;101376.50;;;10.50;100.00
16016;BME280;8112;53.592;10.184;2024-02-15T01:08:22;101379.91;;;10.52;100.00
16016;BME280;8112;53.592;10.184;2024-02-15T01:13:26;101383.16;;;10.57;100.00
16016;BME280;8112;53.592;10.184;2024-02-15T01:18:28;101390.06;;;10.60;100.00
16016;BME280;8112;53.592;10.184;2024-02-15T01:23:32;101375.59;;;10.68;100.00
16016;BME280;8112;53.592;10.184;2024-02-15T01:28:37;101371.03;;;10.72;100.00
16016;BME280;8112;53.592;10.184;2024-02-15T01:33:38;101377.63;;;10.63;100.00
16016;BME280;8112;53.592;10.184;2024-02-15T01:38:44;101374.19;;;10.61;100.00
16016;BME280;8112;53.592;10.184;2024-02-15T01:43:46;101375.91;;;10.62;100.00
16016;BME280;8112;53.592;10.184;2024-02-15T01:48:51;101382.56;;;10.69;100.00
16016;BME280;8112;53.592;10.184;2024-02-15T01:53:58;101373.03;;;10.67;100.00
16016;BME280;8112;53.592;10.184;2024-02-15T01:59:01;101375.66;;;10.67;100.00
16016;BME280;8112;53.592;10.184;2024-02-15T02:04:03;101375.66;;;10.67;100.00
16016;BME280;8112;53.592;10.184;2024-02-15T02:09:10;101376.59;;;10.66;100.00
16016;BME280;8112;53.592;10.184;2024-02-15T02:14:13;101375.59;;;10.68;100.00
16016;BME280;8112;53.592;10.184;2024-02-15T02:19:15;101374.34;;;10.76;100.00
16016;BME280;8112;53.592;10.184;2024-02-15T02:24:22;101369.53;;;10.66;100.00
16016;BME280;8112;53.592;10.184;2024-02-15T02:29:27;101368.94;;;10.61;100.00
16016;BME280;8112;53.592;10.184;2024-02-15T02:34:30;101370.72;;;10.78;100.00
16016;BME280;8112;53.592;10.184;2024-02-15T02:39:32;101373.28;;;10.80;100.00
16016;BME280;8112;53.592;10.184;2024-02-15T02:44:40;101373.66;;;10.72;100.00
16016;BME280;8112;53.592;10.184;2024-02-15T02:49:42;101382.09;;;10.79;100.00
16016;BME280;8112;53.592;10.184;2024-02-15T02:54:44;101373.34;;;10.78;100.00
16016;BME280;8112;53.592;10.184;2024-02-15T02:59:48;101370.50;;;10.83;100.00
16016;BME280;8112;53.592;10.184;2024-02-15T03:04:50;101370.00;;;10.75;100.00
16016;BME280;8112;53.592;10.184;2024-02-15T03:09:53;101369.00;;;10.77;100.00
16016;BME280;8112;53.592;10.184;2024-02-15T03:14:58;101369.72;;;10.81;100.00
16016;BME280;8112;53.592;10.184;2024-02-15T03:20:00;101371.16;;;10.69;100.00
16016;BME280;8112;53.592;10.184;2024-02-15T03:25:04;101376.31;;;10.72;100.00
16016;BME280;8112;53.592;10.184;2024-02-15T03:30:10;101379.63;;;10.76;100.00
16016;BME280;8112;53.592;10.184;2024-02-15T03:35:12;101380.88;;;10.68;100.00
16016;BME280;8112;53.592;10.184;2024-02-15T03:40:17;101383.84;;;10.80;100.00
16016;BME280;8112;53.592;10.184;2024-02-15T03:45:21;101383.91;;;10.78;100.00
16016;BME280;8112;53.592;10.184;2024-02-15T03:50:25;101387.47;;;10.77;100.00
16016;BME280;8112;53.592;10.184;2024-02-15T03:55:29;101398.72;;;10.81;100.00
16016;BME280;8112;53.592;10.184;2024-02-15T04:00:32;101403.06;;;10.82;100.00
16016;BME280;8112;53.592;10.184;2024-02-15T04:05:34;101399.94;;;10.74;100.00
16016;BME280;8112;53.592;10.184;2024-02-15T04:10:36;101397.91;;;10.79;100.00
16016;BME280;8112;53.592;10.184;2024-02-15T04:15:39;101403.06;;;10.82;100.00
16016;BME280;8112;53.592;10.184;2024-02-15T04:20:43;101398.63;;;10.82;100.00
16016;BME280;8112;53.592;10.184;2024-02-15T04:25:46;101402.59;;;10.91;100.00
16016;BME280;8112;53.592;10.184;2024-02-15T04:30:53;101400.19;;;10.87;100.00
16016;BME280;8112;53.592;10.184;2024-02-15T04:35:55;101401.66;;;10.92;100.00
16016;BME280;8112;53.592;10.184;2024-02-15T04:41:02;101410.50;;;10.91;100.00
16016;BME280;8112;53.592;10.184;2024-02-15T04:46:10;101410.81;;;10.85;100.00
16016;BME280;8112;53.592;10.184;2024-02-15T04:51:12;101422.97;;;10.88;100.00
16016;BME280;8112;53.592;10.184;2024-02-15T04:56:16;101426.66;;;11.03;100.00
16016;BME280;8112;53.592;10.184;2024-02-15T05:01:19;101434.56;;;10.85;100.00
16016;BME280;8112;53.592;10.184;2024-02-15T05:06:22;101433.31;;;10.92;100.00
16016;BME280;8112;53.592;10.184;2024-02-15T05:11:25;101440.78;;;11.02;100.00
16016;BME280;8112;53.592;10.184;2024-02-15T05:16:28;101435.78;;;10.95;100.00
16016;BME280;8112;53.592;10.184;2024-02-15T05:21:32;101437.81;;;10.90;100.00
16016;BME280;8112;53.592;10.184;2024-02-15T05:26:36;101433.91;;;10.97;100.00
16016;BME280;8112;53.592;10.184;2024-02-15T05:31:39;101424.25;;;10.98;100.00
16016;BME280;8112;53.592;10.184;2024-02-15T05:36:42;101423.38;;;10.97;100.00
16016;BME280;8112;53.592;10.184;2024-02-15T05:41:43;101417.19;;;10.98;100.00
16016;BME280;8112;53.592;10.184;2024-02-15T05:46:46;101413.53;;;11.01;100.00
16016;BME280;8112;53.592;10.184;2024-02-15T05:51:49;101417.09;;;11.00;100.00
16016;BME280;8112;53.592;10.184;2024-02-15T05:56:51;101418.91;;;11.00;100.00
16016;BME280;8112;53.592;10.184;2024-02-15T06:01:57;101411.13;;;10.96;100.00
16016;BME280;8112;53.592;10.184;2024-02-15T06:06:59;101425.78;;;11.02;100.00
16016;BME280;8112;53.592;10.184;2024-02-15T06:12:01;101425.19;;;10.97;100.00
16016;BME280;8112;53.592;10.184;2024-02-15T06:17:04;101430.59;;;10.94;100.00
16016;BME280;8112;53.592;10.184;2024-02-15T06:22:07;101430.66;;;10.92;100.00
16016;BME280;8112;53.592;10.184;2024-02-15T06:27:08;101437.81;;;10.90;100.00
16016;BME280;8112;53.592;10.184;2024-02-15T06:32:13;101428.75;;;10.96;100.00
16016;BME280;8112;53.592;10.184;2024-02-15T06:37:36;101435.88;;;10.94;100.00
16016;BME280;8112;53.592;10.184;2024-02-15T06:42:56;101428.53;;;11.01;100.00
16016;BME280;8112;53.592;10.184;2024-02-15T06:47:59;101437.22;;;11.03;100.00
16016;BME280;8112;53.592;10.184;2024-02-15T06:53:01;101441.06;;;11.13;100.00
16016;BME280;8112;53.592;10.184;2024-02-15T06:58:03;101435.19;;;11.08;100.00
16016;BME280;8112;53.592;10.184;2024-02-15T07:03:08;101434.72;;;11.00;100.00
16016;BME280;8112;53.592;10.184;2024-02-15T07:08:11;101438.91;;;11.04;100.00
16016;BME280;8112;53.592;10.184;2024-02-15T07:13:17;101440.31;;;11.11;100.00
16016;BME280;8112;53.592;10.184;2024-02-15T07:18:21;101442.38;;;11.04;100.00
16016;BME280;8112;53.592;10.184;2024-02-15T07:23:23;101445.75;;;11.08;100.00
16016;BME280;8112;53.592;10.184;2024-02-15T07:28:26;101440.03;;;11.17;100.00
16016;BME280;8112;53.592;10.184;2024-02-15T07:33:32;101445.41;;;11.14;100.00
16016;BME280;8112;53.592;10.184;2024-02-15T07:38:37;101452.94;;;11.22;100.00
16016;BME280;8112;53.592;10.184;2024-02-15T07:43:40;101461.63;;;11.24;100.00
16016;BME280;8112;53.592;10.184;2024-02-15T07:48:44;101455.44;;;11.25;100.00
16016;BME280;8112;53.592;10.184;2024-02-15T07:53:47;101454.91;;;11.36;100.00
16016;BME280;8112;53.592;10.184;2024-02-15T07:58:49;101454.59;;;11.42;100.00
16016;BME280;8112;53.592;10.184;2024-02-15T08:03:54;101458.31;;;11.38;100.00
16016;BME280;8112;53.592;10.184;2024-02-15T08:08:56;101455.03;;;11.50;100.00
16016;BME280;8112;53.592;10.184;2024-02-15T08:13:58;101459.53;;;11.66;100.00
16016;BME280;8112;53.592;10.184;2024-02-15T08:19:01;101466.50;;;11.67;100.00
16016;BME280;8112;53.592;10.184;2024-02-15T08:24:04;101462.81;;;11.71;100.00
16016;BME280;8112;53.592;10.184;2024-02-15T08:29:09;101465.31;;;11.57;100.00
16016;BME280;8112;53.592;10.184;2024-02-15T08:34:14;101458.94;;;11.61;100.00
16016;BME280;8112;53.592;10.184;2024-02-15T08:39:18;101455.94;;;11.67;100.00
16016;BME280;8112;53.592;10.184;2024-02-15T08:44:22;101451.59;;;11.66;100.00
16016;BME280;8112;53.592;10.184;2024-02-15T08:49:26;101445.22;;;11.70;100.00
16016;BME280;8112;53.592;10.184;2024-02-15T08:54:28;101443.81;;;11.80;100.00
16016;BME280;8112;53.592;10.184;2024-02-15T08:59:33;101436.50;;;11.86;100.00
16016;BME280;8112;53.592;10.184;2024-02-15T09:04:36;101436.03;;;11.95;100.00
16016;BME280;8112;53.592;10.184;2024-02-15T09:09:38;101435.53;;;12.04;100.00
16016;BME280;8112;53.592;10.184;2024-02-15T09:14:40;101441.69;;;12.05;100.00
16016;BME280;8112;53.592;10.184;2024-02-15T09:19:46;101430.00;;;12.09;100.00
16016;BME280;8112;53.592;10.184;2024-02-15T09:24:49;101441.88;;;12.18;100.00
16016;BME280;8112;53.592;10.184;2024-02-15T09:29:51;101429.00;;;12.11;100.00
16016;BME280;8112;53.592;10.184;2024-02-15T09:34:57;101427.72;;;12.19;100.00
16016;BME280;8112;53.592;10.184;2024-02-15T09:39:59;101431.81;;;12.40;100.00
16016;BME280;8112;53.592;10.184;2024-02-15T09:45:07;101434.53;;;12.55;100.00
16016;BME280;8112;53.592;10.184;2024-02-15T09:50:14;101421.50;;;12.52;100.00
16016;BME280;8112;53.592;10.184;2024-02-15T09:55:16;101425.16;;;12.49;100.00
16016;BME280;8112;53.592;10.184;2024-02-15T10:00:19;101423.63;;;12.45;100.00
16016;BME280;8112;53.592;10.184;2024-02-15T10:05:23;101418.69;;;12.39;100.00
16016;BME280;8112;53.592;10.184;2024-02-15T10:10:27;101417.06;;;12.36;100.00
16016;BME280;8112;53.592;10.184;2024-02-15T10:15:31;101412.13;;;12.14;100.00
16016;BME280;8112;53.592;10.184;2024-02-15T10:20:36;101415.28;;;12.21;100.00
16016;BME280;8112;53.592;10.184;2024-02-15T10:25:40;101413.41;;;12.07;100.00
16016;BME280;8112;53.592;10.184;2024-02-15T10:30:44;101419.53;;;12.07;100.00
16016;BME280;8112;53.592;10.184;2024-02-15T10:35:49;101415.28;;;12.05;100.00
16016;BME280;8112;53.592;10.184;2024-02-15T10:41:02;101412.72;;;12.03;100.00
16016;BME280;8112;53.592;10.184;2024-02-15T10:46:08;101406.41;;;12.06;100.00
16016;BME280;8112;53.592;10.184;2024-02-15T10:51:13;101404.63;;;12.22;100.00
16016;BME280;8112;53.592;10.184;2024-02-15T10:56:18;101403.44;;;12.28;100.00
16016;BME280;8112;53.592;10.184;2024-02-15T11:01:27;101402.16;;;12.35;100.00
16016;BME280;8112;53.592;10.184;2024-02-15T11:06:33;101402.41;;;12.47;100.00
16016;BME280;8112;53.592;10.184;2024-02-15T11:11:37;101400.63;;;12.47;100.00
16016;BME280;8112;53.592;10.184;2024-02-15T11:16:45;101387.91;;;12.54;100.00
16016;BME280;8112;53.592;10.184;2024-02-15T11:21:54;101386.78;;;12.74;100.00
16016;BME280;8112;53.592;10.184;2024-02-15T11:26:58;101383.50;;;12.69;100.00
16016;BME280;8112;53.592;10.184;2024-02-15T11:32:03;101384.63;;;12.65;100.00
16016;BME280;8112;53.592;10.184;2024-02-15T11:37:07;101376.97;;;12.60;100.00
16016;BME280;8112;53.592;10.184;2024-02-15T11:42:25;101376.19;;;12.58;100.00
16016;BME280;8112;53.592;10.184;2024-02-15T11:47:29;101362.91;;;12.44;100.00
16016;BME280;8112;53.592;10.184;2024-02-15T11:52:35;101358.41;;;12.30;100.00
16016;BME280;8112;53.592;10.184;2024-02-15T11:57:37;101351.19;;;12.33;100.00
16016;BME280;8112;53.592;10.184;2024-02-15T12:02:48;101350.63;;;12.43;100.00
16016;BME280;8112;53.592;10.184;2024-02-15T12:08:10;101351.19;;;12.33;100.00
16016;BME280;8112;53.592;10.184;2024-02-15T12:13:25;101335.69;;;12.27;100.00
16016;BME280;8112;53.592;10.184;2024-02-15T12:18:54;101342.81;;;12.25;100.00
16016;BME280;8112;53.592;10.184;2024-02-15T12:23:58;101340.09;;;12.26;100.00
16016;BME280;8112;53.592;10.184;2024-02-15T12:29:00;101328.84;;;12.39;100.00
16016;BME280;8112;53.592;10.184;2024-02-15T12:34:03;101328.16;;;12.35;100.00
16016;BME280;8112;53.592;10.184;2024-02-15T12:39:09;101323.72;;;12.36;100.00
16016;BME280;8112;53.592;10.184;2024-02-15T12:44:17;101335.13;;;12.36;100.00
16016;BME280;8112;53.592;10.184;2024-02-15T12:49:28;101328.00;;;12.22;100.00
16016;BME280;8112;53.592;10.184;2024-02-15T12:54:32;101334.31;;;12.20;100.00
16016;BME280;8112;53.592;10.184;2024-02-15T12:59:34;101325.63;;;12.18;100.00
16016;BME280;8112;53.592;10.184;2024-02-15T13:04:37;101327.06;;;12.07;100.00
16016;BME280;8112;53.592;10.184;2024-02-15T13:09:41;101315.41;;;12.11;100.00
16016;BME280;8112;53.592;10.184;2024-02-15T13:14:43;101315.59;;;12.08;100.00
16016;BME280;8112;53.592;10.184;2024-02-15T13:19:45;101315.13;;;12.16;100.00
16016;BME280;8112;53.592;10.184;2024-02-15T13:24:50;101313.28;;;12.18;100.00
16016;BME280;8112;53.592;10.184;2024-02-15T13:29:52;101309.19;;;12.13;100.00
16016;BME280;8112;53.592;10.184;2024-02-15T13:34:54;101307.38;;;12.13;100.00
16016;BME280;8112;53.592;10.184;2024-02-15T13:39:59;101305.47;;;11.99;100.00
16016;BME280;8112;53.592;10.184;2024-02-15T13:45:01;101309.81;;;12.00;100.00
16016;BME280;8112;53.592;10.184;2024-02-15T13:50:04;101299.50;;;11.95;100.00
16016;BME280;8112;53.592;10.184;2024-02-15T13:55:11;101294.91;;;11.99;100.00
16016;BME280;8112;53.592;10.184;2024-02-15T14:00:15;101292.19;;;12.01;100.00
16016;BME280;8112;53.592;10.184;2024-02-15T14:05:24;101303.63;;;12.01;100.00
16016;BME280;8112;53.592;10.184;2024-02-15T14:10:31;101294.69;;;12.04;100.00
16016;BME280;8112;53.592;10.184;2024-02-15T14:15:35;101298.44;;;12.00;100.00
16016;BME280;8112;53.592;10.184;2024-02-15T14:20:39;101295.28;;;11.93;100.00
16016;BME280;8112;53.592;10.184;2024-02-15T14:25:44;101291.69;;;11.94;100.00
16016;BME280;8112;53.592;10.184;2024-02-15T14:30:47;101301.38;;;11.93;100.00
16016;BME280;8112;53.592;10.184;2024-02-15T14:36:06;101291.69;;;11.94;100.00
16016;BME280;8112;53.592;10.184;2024-02-15T14:41:11;101293.28;;;11.96;100.00
16016;BME280;8112;53.592;10.184;2024-02-15T14:46:13;101290.75;;;11.95;100.00
16016;BME280;8112;53.592;10.184;2024-02-15T14:51:16;101292.13;;;12.02;100.00
16016;BME280;8112;53.592;10.184;2024-02-15T14:56:21;101286.06;;;12.00;100.00
16016;BME280;8112;53.592;10.184;2024-02-15T15:01:23;101293.94;;;12.02;100.00
16016;BME280;8112;53.592;10.184;2024-02-15T15:06:25;101292.34;;;11.97;100.00
16016;BME280;8112;53.592;10.184;2024-02-15T15:11:46;101292.06;;;12.04;100.00
16016;BME280;8112;53.592;10.184;2024-02-15T15:17:06;101284.34;;;11.99;100.00
16016;BME280;8112;53.592;10.184;2024-02-15T15:22:09;101283.25;;;12.03;100.00
16016;BME280;8112;53.592;10.184;2024-02-15T15:27:27;101293.06;;;12.01;100.00
16016;BME280;8112;53.592;10.184;2024-02-15T15:32:29;101280.94;;;11.97;100.00
16016;BME280;8112;53.592;10.184;2024-02-15T15:37:31;101286.16;;;11.98;100.00
16016;BME280;8112;53.592;10.184;2024-02-15T15:42:35;101289.63;;;11.99;100.00
16016;BME280;8112;53.592;10.184;2024-02-15T15:47:38;101293.06;;;12.01;100.00
16016;BME280;8112;53.592;10.184;2024-02-15T15:52:40;101293.28;;;11.96;100.00
16016;BME280;8112;53.592;10.184;2024-02-15T15:57:47;101291.28;;;12.02;100.00
16016;BME280;8112;53.592;10.184;2024-02-15T16:02:48;101287.59;;;12.04;100.00
16016;BME280;8112;53.592;10.184;2024-02-15T16:07:51;101283.84;;;11.92;100.00
16016;BME280;8112;53.592;10.184;2024-02-15T16:12:55;101293.22;;;11.98;100.00
16016;BME280;8112;53.592;10.184;2024-02-15T16:17:58;101294.91;;;11.99;100.00
16016;BME280;8112;53.592;10.184;2024-02-15T16:23:00;101296.03;;;11.95;100.00
16016;BME280;8112;53.592;10.184;2024-02-15T16:28:05;101302.44;;;11.91;100.00
16016;BME280;8112;53.592;10.184;2024-02-15T16:33:07;101296.97;;;11.94;100.00
16016;BME280;8112;53.592;10.184;2024-02-15T16:38:09;101286.59;;;11.91;100.00
16016;BME280;8112;53.592;10.184;2024-02-15T16:43:12;101291.88;;;11.91;100.00
16016;BME280;8112;53.592;10.184;2024-02-15T16:48:14;101295.28;;;11.93;100.00
16016;BME280;8112;53.592;10.184;2024-02-15T16:53:16;101303.63;;;12.01;100.00
16016;BME280;8112;53.592;10.184;2024-02-15T16:58:20;101293.22;;;11.98;100.00
16016;BME280;8112;53.592;10.184;2024-02-15T17:03:24;101290.75;;;11.95;100.00
16016;BME280;8112;53.592;10.184;2024-02-15T17:08:26;101290.06;;;11.91;100.00
16016;BME280;8112;53.592;10.184;2024-02-15T17:13:29;101297.28;;;11.88;100.00
16016;BME280;8112;53.592;10.184;2024-02-15T17:18:31;101296.09;;;11.93;100.00
16016;BME280;8112;53.592;10.184;2024-02-15T17:23:34;101307.53;;;11.94;100.00
16016;BME280;8112;53.592;10.184;2024-02-15T17:28:38;101310.25;;;11.92;100.00
16016;BME280;8112;53.592;10.184;2024-02-15T17:33:41;101317.16;;;11.95;100.00
16016;BME280;8112;53.592;10.184;2024-02-15T17:38:44;101317.41;;;11.90;100.00
16016;BME280;8112;53.592;10.184;2024-02-15T17:43:49;101308.38;;;11.78;100.00
16016;BME280;8112;53.592;10.184;2024-02-15T17:48:57;101320.81;;;11.92;100.00
16016;BME280;8112;53.592;10.184;2024-02-15T17:53:59;101312.47;;;11.84;100.00
16016;BME280;8112;53.592;10.184;2024-02-15T17:59:02;101315.00;;;11.86;100.00
16016;BME280;8112;53.592;10.184;2024-02-15T18:04:04;101306.09;;;11.88;100.00
16016;BME280;8112;53.592;10.184;2024-02-15T18:09:06;101305.50;;;11.83;100.00
16016;BME280;8112;53.592;10.184;2024-02-15T18:14:10;101302.75;;;11.84;100.00
16016;BME280;8112;53.592;10.184;2024-02-15T18:19:12;101313.31;;;11.84;100.00
16016;BME280;8112;53.592;10.184;2024-02-15T18:24:14;101314.84;;;11.89;100.00
16016;BME280;8112;53.592;10.184;2024-02-15T18:29:18;101303.44;;;11.88;100.00
16016;BME280;8112;53.592;10.184;2024-02-15T18:34:19;101298.16;;;11.88;100.00
16016;BME280;8112;53.592;10.184;2024-02-15T18:39:21;101298.34;;;11.85;100.00
16016;BME280;8112;53.592;10.184;2024-02-15T18:44:27;101297.66;;;11.81;100.00
16016;BME280;8112;53.592;10.184;2024-02-15T18:49:29;101290.47;;;11.83;100.00
16016;BME280;8112;53.592;10.184;2024-02-15T18:54:31;101289.66;;;11.83;100.00
16016;BME280;8112;53.592;10.184;2024-02-15T18:59:35;101287.00;;;11.83;100.00
16016;BME280;8112;53.592;10.184;2024-02-15T19:04:37;101288.78;;;11.82;100.00
16016;BME280;8112;53.592;10.184;2024-02-15T19:09:40;101288.97;;;11.79;100.00
16016;BME280;8112;53.592;10.184;2024-02-15T19:14:44;101287.09;;;11.81;100.00
16016;BME280;8112;53.592;10.184;2024-02-15T19:19:46;101275.06;;;11.76;100.00
16016;BME280;8112;53.592;10.184;2024-02-15T19:24:48;101269.53;;;11.64;100.00
16016;BME280;8112;53.592;10.184;2024-02-15T19:29:54;101259.81;;;11.65;100.00
16016;BME280;8112;53.592;10.184;2024-02-15T19:34:56;101259.66;;;11.68;100.00
16016;BME280;8112;53.592;10.184;2024-02-15T19:39:58;101257.00;;;11.68;100.00
16016;BME280;8112;53.592;10.184;2024-02-15T19:45:05;101264.00;;;11.69;100.00
16016;BME280;8112;53.592;10.184;2024-02-15T19:50:07;101254.53;;;11.65;100.00
16016;BME280;8112;53.592;10.184;2024-02-15T19:55:10;101258.88;;;11.66;100.00
16016;BME280;8112;53.592;10.184;2024-02-15T20:00:18;101256.25;;;11.66;100.00
16016;BME280;8112;53.592;10.184;2024-02-15T20:05:20;101257.94;;;11.67;100.00
16016;BME280;8112;53.592;10.184;2024-02-15T20:10:24;101255.06;;;11.72;100.00
16016;BME280;8112;53.592;10.184;2024-02-15T20:15:27;101249.00;;;11.69;100.00
16016;BME280;8112;53.592;10.184;2024-02-15T20:20:29;101242.97;;;11.67;100.00
16016;BME280;8112;53.592;10.184;2024-02-15T20:25:32;101235.56;;;11.74;100.00
16016;BME280;8112;53.592;10.184;2024-02-15T20:30:36;101247.06;;;11.73;100.00
16016;BME280;8112;53.592;10.184;2024-02-15T20:35:39;101248.84;;;11.73;100.00
16016;BME280;8112;53.592;10.184;2024-02-15T20:40:41;101249.69;;;11.73;100.00
16016;BME280;8112;53.592;10.184;2024-02-15T20:45:46;101249.38;;;11.63;100.00
16016;BME280;8112;53.592;10.184;2024-02-15T20:50:48;101259.06;;;11.63;100.00
16016;BME280;8112;53.592;10.184;2024-02-15T20:55:50;101263.06;;;11.70;100.00
16016;BME280;8112;53.592;10.184;2024-02-15T21:00:53;101263.41;;;11.64;100.00
16016;BME280;8112;53.592;10.184;2024-02-15T21:05:56;101269.38;;;11.67;100.00
16016;BME280;8112;53.592;10.184;2024-02-15T21:11:00;101263.22;;;11.67;100.00
16016;BME280;8112;53.592;10.184;2024-02-15T21:16:04;101262.16;;;11.71;100.00
16016;BME280;8112;53.592;10.184;2024-02-15T21:21:08;101265.97;;;11.65;100.00
16016;BME280;8112;53.592;10.184;2024-02-15T21:26:11;101256.34;;;11.64;100.00
16016;BME280;8112;53.592;10.184;2024-02-15T21:31:15;101244.66;;;11.68;100.00
16016;BME280;8112;53.592;10.184;2024-02-15T21:36:17;101242.03;;;11.68;100.00
16016;BME280;8112;53.592;10.184;2024-02-15T21:41:20;101233.25;;;11.68;100.00
16016;BME280;8112;53.592;10.184;2024-02-15T21:46:26;101237.94;;;11.63;100.00
16016;BME280;8112;53.592;10.184;2024-02-15T21:51:28;101234.94;;;11.69;100.00
16016;BME280;8112;53.592;10.184;2024-02-15T21:56:29;101233.59;;;11.62;100.00
16016;BME280;8112;53.592;10.184;2024-02-15T22:01:37;101225.50;;;11.65;100.00
16016;BME280;8112;53.592;10.184;2024-02-15T22:06:44;101218.44;;;11.65;100.00
16016;BME280;8112;53.592;10.184;2024-02-15T22:11:47;101217.59;;;11.65;100.00
16016;BME280;8112;53.592;10.184;2024-02-15T22:16:50;101209.50;;;11.68;100.00
16016;BME280;8112;53.592;10.184;2024-02-15T22:21:52;101210.09;;;11.73;100.00
16016;BME280;8112;53.592;10.184;2024-02-15T22:26:54;101191.88;;;11.68;100.00
16016;BME280;8112;53.592;10.184;2024-02-15T22:32:01;101204.22;;;11.68;100.00
16016;BME280;8112;53.592;10.184;2024-02-15T22:37:04;101191.94;;;11.67;100.00
16016;BME280;8112;53.592;10.184;2024-02-15T22:42:07;101192.88;;;11.66;100.00
16016;BME280;8112;53.592;10.184;2024-02-15T22:47:12;101175.34;;;11.65;100.00
16016;BME280;8112;53.592;10.184;2024-02-15T22:52:15;101177.03;;;11.66;100.00
16016;BME280;8112;53.592;10.184;2024-02-15T22:57:19;101168.19;;;11.67;100.00
16016;BME280;8112;53.592;10.184;2024-02-15T23:02:23;101155.28;;;11.62;100.00
16016;BME280;8112;53.592;10.184;2024-02-15T23:07:25;101158.16;;;11.58;100.00
16016;BME280;8112;53.592;10.184;2024-02-15T23:12:26;101160.38;;;11.49;100.00
16016;BME280;8112;53.592;10.184;2024-02-15T23:17:30;101148.63;;;11.39;100.00
16016;BME280;8112;53.592;10.184;2024-02-15T23:22:31;101141.41;;;11.26;100.00
16016;BME280;8112;53.592;10.184;2024-02-15T23:27:33;101140.06;;;11.19;100.00
16016;BME280;8112;53.592;10.184;2024-02-15T23:32:37;101135.25;;;11.10;100.00
16016;BME280;8112;53.592;10.184;2024-02-15T23:37:39;101125.81;;;11.06;100.00
16016;BME280;8112;53.592;10.184;2024-02-15T23:42:59;101123.94;;;11.08;100.00
16016;BME280;8112;53.592;10.184;2024-02-15T23:48:03;101123.25;;;11.04;100.00
16016;BME280;8112;53.592;10.184;2024-02-15T23:53:05;101120.22;;;10.96;100.00
16016;BME280;8112;53.592;10.184;2024-02-15T23:58:07;101118.47;;;10.79;100.00
